Time;durP1;ratioP1;P1;durP2;ratioP2;P2;SDS_P1;SDS_P2;PMS_P1;PMS_P2;Temp;Humidity;BMP_temperature;BMP_pressure;BME280_temperature;BME280_humidity;BME280_pressure;Samples;Min_cycle;Max_cycle;Signal;HPM_P1;HPM_P2
2022/04/04 00:02:23;;;;;;;0.30;0.13;;;20.50;35.60;;;;;;5071176;28;20032;-63
2022/04/04 00:04:50;;;;;;;2.28;0.85;;;20.40;35.80;;;;;;5068926;28;20068;-63
2022/04/04 00:07:17;;;;;;;1.17;0.20;;;20.40;35.90;;;;;;5069852;28;20036;-61
2022/04/04 00:09:46;;;;;;;3.13;0.10;;;20.40;36.00;;;;;;5071392;28;20041;-59
2022/04/04 00:12:13;;;;;;;4.30;0.75;;;20.40;36.10;;;;;;5081328;28;20036;-63
2022/04/04 00:14:42;;;;;;;0.45;0.10;;;20.40;36.20;;;;;;5072447;28;20139;-61
2022/04/04 00:17:09;;;;;;;0.95;0.30;;;20.30;36.20;;;;;;5070534;28;20068;-63
2022/04/04 00:19:37;;;;;;;3.28;0.40;;;20.30;36.30;;;;;;5074162;28;20036;-62
2022/04/04 00:22:04;;;;;;;0.68;0.10;;;20.30;36.30;;;;;;5082103;28;20485;-62
2022/04/04 00:24:32;;;;;;;3.58;0.47;;;20.30;36.50;;;;;;5073711;28;20130;-61
2022/04/04 00:26:59;;;;;;;1.65;0.10;;;20.30;36.50;;;;;;5075150;28;20064;-63
2022/04/04 00:29:26;;;;;;;1.20;0.30;;;20.30;36.60;;;;;;5070851;28;20406;-64
2022/04/04 00:31:55;;;;;;;0.60;0.10;;;20.20;36.60;;;;;;5083463;28;20141;-64
2022/04/04 00:34:22;;;;;;;2.28;0.30;;;20.20;36.70;;;;;;5074393;28;20037;-65
2022/04/04 00:36:49;;;;;;;0.40;0.10;;;20.20;36.80;;;;;;5076890;28;20064;-64
2022/04/04 00:39:19;;;;;;;0.20;0.10;;;20.20;36.80;;;;;;5072388;28;20102;-65
2022/04/04 00:41:46;;;;;;;0.20;0.10;;;20.20;36.90;;;;;;5076048;28;20044;-64
2022/04/04 00:44:14;;;;;;;1.27;0.10;;;20.20;37.00;;;;;;5074139;28;20115;-65
2022/04/04 00:46:43;;;;;;;0.82;0.10;;;20.20;37.10;;;;;;5073025;28;20044;-65
2022/04/04 00:49:12;;;;;;;0.80;0.10;;;20.20;37.10;;;;;;5073800;28;20045;-65
2022/04/04 00:51:40;;;;;;;2.05;0.17;;;20.20;37.20;;;;;;5072503;28;20040;-66
2022/04/04 00:54:08;;;;;;;1.70;0.30;;;20.20;37.20;;;;;;5077040;28;20105;-63
2022/04/04 00:56:38;;;;;;;0.57;0.38;;;20.10;37.20;;;;;;5075943;28;20131;-63
2022/04/04 00:59:10;;;;;;;2.15;0.28;;;20.10;37.40;;;;;;5080388;28;20115;-63
2022/04/04 01:01:37;;;;;;;2.85;0.10;;;20.20;37.30;;;;;;5072943;28;20040;-64
2022/04/04 01:04:05;;;;;;;1.58;0.10;;;20.10;37.30;;;;;;5079031;28;20068;-63
2022/04/04 01:06:33;;;;;;;0.45;0.10;;;20.10;37.40;;;;;;5071147;28;20052;-63
2022/04/04 01:09:01;;;;;;;1.23;0.68;;;20.10;37.30;;;;;;5076648;28;20097;-65
2022/04/04 01:11:28;;;;;;;1.98;0.13;;;20.10;37.40;;;;;;5072724;28;20048;-65
2022/04/04 01:13:55;;;;;;;0.20;0.10;;;20.10;37.40;;;;;;5078420;28;20513;-65
2022/04/04 01:16:22;;;;;;;0.40;0.20;;;20.10;37.50;;;;;;5088022;28;20032;-64
2022/04/04 01:18:50;;;;;;;0.35;0.10;;;20.10;37.50;;;;;;5072527;28;20505;-64
2022/04/04 01:21:19;;;;;;;2.78;0.30;;;20.10;37.60;;;;;;5072351;28;20043;-63
2022/04/04 01:23:50;;;;;;;1.73;0.20;;;20.10;37.60;;;;;;5076151;28;20048;-63
2022/04/04 01:26:20;;;;;;;1.40;0.10;;;20.10;37.60;;;;;;5070936;28;20040;-64
2022/04/04 01:28:47;;;;;;;0.10;0.10;;;20.10;37.60;;;;;;5082971;28;20048;-64
2022/04/04 01:31:14;;;;;;;0.15;0.10;;;20.10;37.60;;;;;;5087452;28;20127;-63
2022/04/04 01:33:41;;;;;;;1.48;0.30;;;20.00;37.60;;;;;;5073057;28;20045;-64
2022/04/04 01:36:08;;;;;;;1.75;0.10;;;20.00;37.60;;;;;;5077327;28;20854;-63
2022/04/04 01:38:35;;;;;;;0.10;0.10;;;20.00;37.60;;;;;;5071401;28;20077;-62
2022/04/04 01:41:02;;;;;;;0.98;0.20;;;20.00;37.60;;;;;;5068575;28;20044;-63
2022/04/04 01:43:31;;;;;;;0.77;0.20;;;20.00;37.60;;;;;;5072780;28;20068;-62
2022/04/04 01:48:43;;;;;;;0.47;0.10;;;20.00;38.20;;;;;;5071557;28;20040;-63
2022/04/04 01:51:10;;;;;;;0.80;0.15;;;20.00;37.60;;;;;;5073408;28;20490;-63
2022/04/04 01:53:37;;;;;;;0.57;0.10;;;20.00;37.60;;;;;;5072389;28;20446;-62
2022/04/04 01:56:05;;;;;;;1.95;0.10;;;20.00;37.70;;;;;;5076828;28;20582;-63
2022/04/04 01:58:34;;;;;;;0.90;0.10;;;20.00;37.70;;;;;;5080265;28;20259;-63
2022/04/04 02:01:02;;;;;;;0.43;0.10;;;20.00;37.70;;;;;;5073623;28;20045;-65
2022/04/04 02:03:31;;;;;;;0.28;0.10;;;20.00;37.60;;;;;;5079528;28;20067;-61
2022/04/04 02:05:59;;;;;;;0.08;0.05;;;20.00;37.60;;;;;;5072786;28;20530;-60
2022/04/04 02:08:27;;;;;;;1.15;0.52;;;20.00;37.60;;;;;;5074727;28;20132;-63
2022/04/04 02:10:54;;;;;;;0.10;0.10;;;20.00;37.60;;;;;;5071250;28;20432;-61
2022/04/04 02:13:23;;;;;;;0.10;0.10;;;19.90;37.60;;;;;;5069680;28;20056;-62
2022/04/04 02:15:52;;;;;;;2.15;0.10;;;19.90;37.50;;;;;;5074839;28;20131;-61
2022/04/04 02:18:19;;;;;;;0.45;0.10;;;19.90;37.50;;;;;;5074304;28;20424;-62
2022/04/04 02:20:46;;;;;;;1.65;0.43;;;19.90;37.50;;;;;;5073252;28;20040;-62
2022/04/04 02:23:17;;;;;;;1.58;0.10;;;19.90;37.50;;;;;;5068784;28;20047;-63
2022/04/04 02:25:45;;;;;;;0.52;0.10;;;19.90;37.50;;;;;;5069526;28;20690;-60
2022/04/04 02:28:14;;;;;;;2.28;0.10;;;19.90;37.50;;;;;;5076355;28;20040;-62
2022/04/04 02:30:43;;;;;;;3.33;0.30;;;19.90;37.50;;;;;;5083179;28;20035;-62
2022/04/04 02:33:12;;;;;;;0.10;0.10;;;19.90;37.50;;;;;;5078079;28;20117;-62
2022/04/04 02:35:40;;;;;;;1.83;0.35;;;19.80;37.40;;;;;;5074649;28;20135;-62
2022/04/04 02:38:08;;;;;;;2.03;0.25;;;19.90;37.50;;;;;;5070548;28;20045;-61
2022/04/04 02:40:36;;;;;;;1.35;0.10;;;19.80;37.40;;;;;;5067447;28;20082;-63
2022/04/04 02:43:04;;;;;;;0.38;0.00;;;19.80;37.30;;;;;;5071632;28;20040;-63
2022/04/04 02:45:31;;;;;;;0.20;0.10;;;19.80;37.40;;;;;;5076545;28;20131;-63
2022/04/04 02:47:59;;;;;;;0.10;0.10;;;19.80;37.40;;;;;;5070552;28;20050;-63
2022/04/04 02:50:28;;;;;;;2.70;0.10;;;19.80;37.40;;;;;;5070287;28;20036;-62
2022/04/04 02:52:55;;;;;;;1.00;0.10;;;19.80;37.40;;;;;;5073177;28;20035;-64
2022/04/04 02:58:09;;;;;;;0.10;0.00;;;19.70;37.30;;;;;;5081412;28;20060;-64
2022/04/04 03:00:37;;;;;;;1.35;0.10;;;19.70;37.30;;;;;;5078189;28;20840;-64
2022/04/04 03:03:04;;;;;;;0.52;0.10;;;19.70;37.40;;;;;;5076007;28;20036;-62
2022/04/04 03:05:32;;;;;;;0.65;0.08;;;19.70;37.40;;;;;;5074266;28;20044;-62
2022/04/04 03:08:00;;;;;;;0.10;0.10;;;19.70;37.50;;;;;;5079765;28;20044;-61
2022/04/04 03:10:27;;;;;;;0.63;0.10;;;19.70;37.40;;;;;;5076410;28;20761;-61
2022/04/04 03:12:55;;;;;;;0.20;0.10;;;19.70;37.50;;;;;;5077305;28;20114;-62
2022/04/04 03:15:24;;;;;;;0.10;0.10;;;19.70;37.50;;;;;;5077209;28;20045;-61
2022/04/04 03:17:53;;;;;;;0.35;0.10;;;19.70;37.50;;;;;;5076407;28;20561;-60
2022/04/04 03:20:22;;;;;;;0.10;0.10;;;19.70;37.50;;;;;;5074437;28;20113;-61
2022/04/04 03:22:54;;;;;;;0.35;0.35;;;19.60;37.40;;;;;;5068853;28;20040;-62
2022/04/04 03:25:21;;;;;;;0.10;0.10;;;19.60;37.40;;;;;;5073526;28;20440;-61
2022/04/04 03:27:49;;;;;;;0.30;0.20;;;19.60;37.50;;;;;;5085801;28;20044;-61
2022/04/04 03:30:19;;;;;;;0.75;0.10;;;19.60;37.50;;;;;;5077497;28;20519;-61
2022/04/04 03:32:49;;;;;;;0.75;0.10;;;19.60;37.50;;;;;;5076128;28;20036;-61
2022/04/04 03:35:17;;;;;;;0.10;0.10;;;19.60;37.50;;;;;;5073107;28;20079;-61
2022/04/04 03:37:46;;;;;;;1.77;0.20;;;19.60;37.50;;;;;;5075778;28;20047;-59
2022/04/04 03:40:16;;;;;;;1.45;0.10;;;19.60;37.50;;;;;;5074686;28;20094;-60
2022/04/04 03:42:45;;;;;;;0.30;0.10;;;19.50;37.50;;;;;;5077941;28;20048;-60
2022/04/04 03:45:14;;;;;;;1.48;0.10;;;19.60;37.60;;;;;;5077716;28;20058;-60
2022/04/04 03:47:42;;;;;;;0.10;0.10;;;19.50;37.50;;;;;;5083686;28;20565;-61
2022/04/04 03:50:12;;;;;;;3.75;0.10;;;19.50;37.60;;;;;;5087621;28;20119;-60
2022/04/04 03:52:39;;;;;;;0.82;0.35;;;19.50;37.60;;;;;;5074533;28;20453;-59
2022/04/04 03:55:08;;;;;;;0.13;0.10;;;19.50;37.60;;;;;;5080423;28;20044;-60
2022/04/04 03:57:38;;;;;;;0.40;0.40;;;19.50;37.60;;;;;;5080842;28;20044;-61
2022/04/04 04:00:07;;;;;;;0.50;0.20;;;19.50;37.60;;;;;;5077339;28;20185;-60
2022/04/04 04:02:35;;;;;;;0.10;0.10;;;19.50;37.60;;;;;;5072991;28;20122;-61
2022/04/04 04:05:03;;;;;;;0.15;0.00;;;19.50;37.60;;;;;;5069444;28;20114;-60
2022/04/04 04:07:30;;;;;;;0.52;0.10;;;19.50;37.70;;;;;;5078131;28;20409;-61
2022/04/04 04:09:59;;;;;;;0.10;0.10;;;19.50;37.70;;;;;;5077843;28;20076;-60
2022/04/04 04:12:27;;;;;;;0.10;0.10;;;19.50;37.70;;;;;;5072455;28;20378;-60
2022/04/04 04:14:57;;;;;;;0.52;0.17;;;19.50;37.70;;;;;;5076426;28;20111;-62
2022/04/04 04:17:25;;;;;;;0.40;0.10;;;19.40;37.60;;;;;;5072190;28;20047;-61
2022/04/04 04:22:37;;;;;;;1.80;0.20;;;19.40;37.70;;;;;;5069431;28;20060;-62
2022/04/04 04:25:07;;;;;;;2.72;0.10;;;19.40;37.70;;;;;;5077632;28;20147;-62
2022/04/04 04:27:34;;;;;;;0.95;0.40;;;19.40;37.70;;;;;;5081169;28;20220;-63
2022/04/04 04:30:03;;;;;;;1.40;0.10;;;19.40;37.70;;;;;;5082636;28;20087;-63
2022/04/04 04:32:31;;;;;;;2.72;0.10;;;19.40;37.80;;;;;;5071473;28;20044;-64
2022/04/04 04:34:58;;;;;;;0.10;0.10;;;19.40;37.80;;;;;;5072492;28;20587;-63
2022/04/04 04:37:25;;;;;;;0.65;0.10;;;19.40;37.80;;;;;;5080446;28;20036;-63
2022/04/04 04:39:53;;;;;;;0.25;0.10;;;19.40;37.80;;;;;;5082100;28;20044;-63
2022/04/04 04:42:20;;;;;;;0.20;0.10;;;19.40;37.90;;;;;;5079207;28;20496;-63
2022/04/04 04:44:48;;;;;;;3.55;0.10;;;19.40;37.90;;;;;;5072687;28;20045;-63
2022/04/04 04:47:18;;;;;;;0.40;0.17;;;19.40;37.90;;;;;;5077897;28;20408;-63
2022/04/04 04:49:48;;;;;;;0.10;0.08;;;19.40;37.90;;;;;;5079538;28;20136;-62
2022/04/04 04:52:16;;;;;;;0.85;0.10;;;19.40;37.90;;;;;;5085481;28;20032;-62
2022/04/04 04:54:44;;;;;;;1.30;0.10;;;19.40;37.80;;;;;;5082890;28;20145;-62
2022/04/04 04:57:11;;;;;;;0.98;0.30;;;19.40;37.90;;;;;;5078075;28;20086;-63
2022/04/04 04:59:38;;;;;;;2.17;0.55;;;19.40;37.90;;;;;;5080384;28;20047;-62
2022/04/04 05:02:06;;;;;;;0.38;0.10;;;19.40;37.90;;;;;;5072595;28;20497;-62
2022/04/04 05:04:34;;;;;;;0.38;0.10;;;19.40;37.90;;;;;;5069201;28;20051;-63
2022/04/04 05:07:02;;;;;;;0.55;0.22;;;19.30;37.90;;;;;;5082346;28;20138;-64
2022/04/04 05:09:29;;;;;;;0.30;0.30;;;19.40;37.90;;;;;;5081287;28;20052;-63
2022/04/04 05:11:56;;;;;;;0.40;0.10;;;19.30;37.90;;;;;;5077213;28;20036;-64
2022/04/04 05:14:23;;;;;;;0.10;0.00;;;19.30;37.90;;;;;;5073515;28;20040;-63
2022/04/04 05:16:50;;;;;;;1.55;0.10;;;19.30;37.90;;;;;;5078265;28;20113;-63
2022/04/04 05:19:19;;;;;;;2.17;0.10;;;19.30;37.90;;;;;;5085791;28;20130;-63
2022/04/04 05:21:48;;;;;;;0.20;0.10;;;19.30;37.90;;;;;;5074306;28;20048;-60
2022/04/04 05:24:16;;;;;;;0.38;0.10;;;19.30;37.90;;;;;;5080716;28;20539;-60
2022/04/04 05:26:44;;;;;;;1.10;0.40;;;19.30;37.90;;;;;;5081452;28;20048;-62
2022/04/04 05:29:11;;;;;;;1.40;0.10;;;19.30;37.80;;;;;;5075718;28;20040;-61
2022/04/04 05:31:39;;;;;;;1.05;0.10;;;19.30;37.90;;;;;;5076133;28;20043;-62
2022/04/04 05:34:07;;;;;;;0.40;0.10;;;19.30;37.80;;;;;;5076249;28;20072;-65
2022/04/04 05:36:34;;;;;;;2.67;0.30;;;19.30;37.90;;;;;;5077964;28;20040;-63
2022/04/04 05:39:05;;;;;;;0.55;0.10;;;19.30;37.90;;;;;;5078225;28;20040;-62
2022/04/04 05:41:36;;;;;;;0.10;0.05;;;19.30;37.90;;;;;;5078145;28;20067;-63
2022/04/04 05:44:04;;;;;;;0.08;0.08;;;19.30;37.90;;;;;;5080875;28;20117;-63
2022/04/04 05:46:31;;;;;;;1.40;0.50;;;19.30;37.90;;;;;;5073781;28;20044;-63
2022/04/04 05:49:00;;;;;;;0.15;0.00;;;19.30;37.90;;;;;;5075154;28;20780;-63
2022/04/04 05:51:28;;;;;;;0.17;0.10;;;19.30;38.00;;;;;;5078398;28;20086;-63
2022/04/04 05:53:56;;;;;;;0.30;0.10;;;19.30;38.00;;;;;;5080644;28;20063;-62
2022/04/04 05:56:24;;;;;;;0.38;0.10;;;19.30;38.00;;;;;;5077852;28;20039;-63
2022/04/04 05:58:51;;;;;;;0.10;0.05;;;19.30;38.00;;;;;;5077611;28;20044;-63
2022/04/04 06:01:19;;;;;;;1.35;0.10;;;19.30;38.20;;;;;;5084341;28;20144;-65
2022/04/04 06:03:46;;;;;;;0.35;0.10;;;19.30;38.00;;;;;;5079895;28;20066;-63
2022/04/04 06:06:13;;;;;;;0.30;0.10;;;19.30;38.40;;;;;;5079565;28;20056;-65
2022/04/04 06:08:40;;;;;;;5.57;0.20;;;19.30;38.70;;;;;;5070589;28;20135;-64
2022/04/04 06:11:08;;;;;;;12.05;0.50;;;19.30;38.90;;;;;;5076206;28;20556;-62
2022/04/04 06:13:37;;;;;;;1.17;0.20;;;19.40;39.30;;;;;;5070125;28;20110;-57
2022/04/04 06:16:05;;;;;;;12.02;0.30;;;19.50;39.60;;;;;;5075195;28;20064;-56
2022/04/04 06:18:32;;;;;;;2.25;1.20;;;19.60;39.90;;;;;;5073698;28;20090;-60
2022/04/04 06:21:00;;;;;;;2.08;0.10;;;19.70;40.10;;;;;;5076344;28;20111;-63
2022/04/04 06:23:28;;;;;;;2.70;0.20;;;19.80;40.20;;;;;;5076166;28;20464;-61
2022/04/04 06:25:56;;;;;;;3.28;0.10;;;19.90;40.40;;;;;;5071061;28;20055;-61
2022/04/04 06:28:24;;;;;;;4.65;0.20;;;20.00;40.50;;;;;;5084855;28;20085;-61
2022/04/04 06:30:52;;;;;;;15.45;3.60;;;20.00;40.30;;;;;;5075529;28;20049;-60
2022/04/04 06:33:20;;;;;;;13.13;1.33;;;20.00;42.30;;;;;;5076586;28;20132;-60
2022/04/04 06:35:48;;;;;;;6.82;0.70;;;20.00;44.30;;;;;;5070195;28;20393;-62
2022/04/04 06:38:18;;;;;;;9.52;0.80;;;20.00;44.80;;;;;;5069412;28;20047;-65
2022/04/04 06:40:45;;;;;;;17.17;1.30;;;20.00;45.80;;;;;;5069974;28;20033;-64
2022/04/04 06:43:12;;;;;;;12.23;1.08;;;20.00;47.10;;;;;;5077927;28;20079;-58
2022/04/04 06:45:41;;;;;;;14.90;1.55;;;20.00;47.20;;;;;;5070316;28;20037;-58
2022/04/04 06:48:09;;;;;;;16.52;0.77;;;20.10;47.50;;;;;;5072135;28;20177;-59
2022/04/04 06:50:37;;;;;;;15.25;1.73;;;20.20;47.20;;;;;;5071706;28;20036;-57
2022/04/04 06:53:04;;;;;;;11.93;0.98;;;20.20;46.30;;;;;;5081217;28;20405;-59
2022/04/04 06:55:32;;;;;;;14.90;2.42;;;20.30;46.00;;;;;;5071004;28;20044;-59
2022/04/04 06:57:59;;;;;;;5.93;0.50;;;20.30;45.90;;;;;;5083600;28;20454;-59
2022/04/04 07:00:26;;;;;;;8.68;0.40;;;20.40;45.70;;;;;;5073048;28;20044;-58
2022/04/04 07:02:55;;;;;;;8.63;0.50;;;20.50;46.10;;;;;;5072307;28;20040;-59
2022/04/04 07:05:24;;;;;;;12.75;0.40;;;20.40;45.30;;;;;;5070594;28;20048;-60
2022/04/04 07:07:52;;;;;;;6.38;0.80;;;20.50;45.10;;;;;;5072013;28;20055;-60
2022/04/04 07:10:19;;;;;;;5.53;1.00;;;20.50;44.90;;;;;;5067287;28;20052;-59
2022/04/04 07:12:46;;;;;;;6.90;0.70;;;20.50;44.70;;;;;;5069114;28;20059;-59
2022/04/04 07:15:14;;;;;;;3.80;0.93;;;20.50;44.60;;;;;;5073824;28;20040;-59
2022/04/04 07:17:42;;;;;;;8.07;1.13;;;20.60;44.40;;;;;;5069764;28;20104;-59
2022/04/04 07:20:10;;;;;;;7.45;0.38;;;20.60;44.30;;;;;;5067379;28;20509;-59
2022/04/04 07:22:40;;;;;;;4.43;0.40;;;20.60;44.10;;;;;;5070887;28;20051;-59
2022/04/04 07:25:09;;;;;;;11.73;1.17;;;20.60;43.80;;;;;;5077161;28;20049;-58
2022/04/04 07:27:36;;;;;;;4.45;0.38;;;20.60;43.60;;;;;;5074996;28;20482;-60
2022/04/04 07:30:04;;;;;;;3.40;0.17;;;20.60;43.40;;;;;;5078637;28;20036;-60
2022/04/04 07:32:32;;;;;;;3.08;0.25;;;20.70;43.30;;;;;;5070680;28;20130;-60
2022/04/04 07:34:59;;;;;;;3.30;0.35;;;20.60;43.10;;;;;;5071373;28;20052;-60
2022/04/04 07:37:26;;;;;;;2.92;0.10;;;20.60;43.00;;;;;;5068975;28;20045;-60
2022/04/04 07:39:54;;;;;;;4.65;0.20;;;20.70;43.00;;;;;;5070490;28;20045;-60
2022/04/04 07:42:21;;;;;;;3.33;0.30;;;20.70;42.90;;;;;;5077440;28;20040;-60
2022/04/04 07:44:49;;;;;;;3.28;0.20;;;20.70;42.70;;;;;;5080206;28;20051;-59
2022/04/04 07:47:17;;;;;;;4.03;0.30;;;20.70;42.60;;;;;;5071830;28;20384;-59
2022/04/04 07:49:44;;;;;;;3.17;0.10;;;20.70;42.50;;;;;;5074118;28;20044;-59
2022/04/04 07:52:11;;;;;;;1.55;0.10;;;20.70;42.40;;;;;;5074899;28;20090;-60
2022/04/04 07:54:38;;;;;;;6.45;0.30;;;20.70;42.90;;;;;;5073251;28;20045;-61
2022/04/04 07:57:07;;;;;;;1.13;0.20;;;20.70;42.10;;;;;;5078117;28;20531;-59
2022/04/04 07:59:34;;;;;;;3.10;0.10;;;20.70;42.00;;;;;;5082346;28;20040;-61
2022/04/04 08:02:01;;;;;;;1.05;0.10;;;20.70;41.90;;;;;;5068523;28;20049;-59
2022/04/04 08:04:28;;;;;;;1.35;0.20;;;20.70;41.70;;;;;;5074843;28;20055;-58
2022/04/04 08:06:56;;;;;;;2.40;0.10;;;20.70;42.10;;;;;;5078619;28;20056;-59
2022/04/04 08:09:23;;;;;;;2.88;0.38;;;20.70;41.40;;;;;;5072381;28;20044;-59
2022/04/04 08:11:52;;;;;;;1.48;0.10;;;20.70;41.30;;;;;;5076110;28;20040;-59
2022/04/04 08:14:21;;;;;;;0.68;0.13;;;20.70;41.20;;;;;;5075288;28;20048;-59
2022/04/04 08:16:48;;;;;;;2.08;0.10;;;20.70;41.00;;;;;;5075843;28;20082;-59
2022/04/04 08:19:16;;;;;;;0.70;0.10;;;20.70;41.00;;;;;;5074295;28;20485;-59
2022/04/04 08:21:44;;;;;;;2.35;0.10;;;20.70;40.90;;;;;;5076549;28;20041;-56
2022/04/04 08:24:12;;;;;;;4.00;0.20;;;20.70;40.80;;;;;;5074096;28;20040;-59
2022/04/04 08:26:40;;;;;;;0.52;0.10;;;20.70;40.70;;;;;;5072647;28;20549;-59
2022/04/04 08:29:09;;;;;;;0.20;0.08;;;20.70;40.60;;;;;;5080858;28;20044;-59
2022/04/04 08:31:39;;;;;;;0.20;0.20;;;20.70;40.40;;;;;;5085358;28;20048;-59
2022/04/04 08:34:06;;;;;;;0.55;0.43;;;20.70;40.30;;;;;;5074843;28;20045;-59
2022/04/04 08:36:33;;;;;;;1.25;0.17;;;20.70;40.30;;;;;;5074254;28;20037;-59
2022/04/04 08:39:00;;;;;;;0.43;0.10;;;20.70;40.20;;;;;;5075204;28;20130;-59
2022/04/04 08:41:31;;;;;;;0.17;0.10;;;20.70;40.10;;;;;;5071764;28;20080;-59
2022/04/04 08:44:01;;;;;;;1.00;0.10;;;20.70;40.00;;;;;;5067786;28;20470;-59
2022/04/04 08:46:29;;;;;;;1.65;0.10;;;20.70;39.90;;;;;;5073724;28;20040;-59
2022/04/04 08:48:58;;;;;;;0.30;0.10;;;20.70;39.90;;;;;;5079533;28;20045;-59
2022/04/04 08:51:26;;;;;;;0.63;0.10;;;20.70;39.70;;;;;;5072009;28;20067;-59
2022/04/04 08:53:54;;;;;;;1.05;0.10;;;20.70;39.60;;;;;;5075753;28;20524;-58
2022/04/04 08:56:23;;;;;;;0.63;0.10;;;20.70;39.60;;;;;;5071988;28;20047;-60
2022/04/04 08:58:51;;;;;;;0.77;0.00;;;20.70;39.50;;;;;;5078469;28;20115;-59
2022/04/04 09:01:19;;;;;;;2.05;0.45;;;20.70;39.40;;;;;;5069401;28;20610;-59
2022/04/04 09:03:52;;;;;;;0.85;0.22;;;20.70;39.30;;;;;;5071570;28;20504;-58
2022/04/04 09:06:21;;;;;;;0.10;0.10;;;20.70;39.20;;;;;;5072396;28;20040;-59
2022/04/04 09:08:50;;;;;;;0.80;0.20;;;20.70;39.10;;;;;;5081914;28;20097;-59
2022/04/04 09:11:18;;;;;;;1.05;0.13;;;20.70;39.10;;;;;;5068885;28;20096;-59
2022/04/04 09:13:45;;;;;;;2.72;0.03;;;20.70;39.00;;;;;;5071990;28;20044;-59
2022/04/04 09:16:12;;;;;;;0.73;0.10;;;20.70;38.90;;;;;;5079501;28;20512;-59
2022/04/04 09:18:57;;;;;;;5.78;0.68;;;20.70;38.80;;;;;;5071481;28;20040;-59
2022/04/04 09:21:35;;;;;;;0.10;0.10;;;20.70;38.70;;;;;;5075467;28;20048;-61
2022/04/04 09:24:07;;;;;;;1.17;0.10;;;20.70;38.70;;;;;;5071315;28;20058;-61
2022/04/04 09:26:36;;;;;;;0.40;0.10;;;20.70;38.70;;;;;;5071580;28;20044;-59
2022/04/04 09:29:08;;;;;;;0.15;0.03;;;20.70;38.60;;;;;;5082500;28;20412;-59
2022/04/04 09:31:36;;;;;;;2.20;0.00;;;20.70;38.50;;;;;;5072275;28;20052;-59
2022/04/04 09:34:05;;;;;;;1.25;0.10;;;20.70;38.40;;;;;;5072672;28;20040;-58
2022/04/04 09:36:45;;;;;;;0.10;0.10;;;20.70;38.40;;;;;;5073793;28;20420;-58
2022/04/04 09:39:15;;;;;;;0.20;0.10;;;20.70;38.30;;;;;;5075077;28;20131;-58
2022/04/04 09:41:43;;;;;;;0.80;0.08;;;20.70;38.20;;;;;;5070898;28;20050;-59
2022/04/04 09:44:11;;;;;;;0.05;0.05;;;20.70;38.20;;;;;;5068758;28;20048;-59
2022/04/04 09:46:41;;;;;;;0.35;0.10;;;20.70;38.10;;;;;;5071690;28;20056;-59
2022/04/04 09:49:10;;;;;;;0.20;0.10;;;20.80;38.10;;;;;;5078080;28;20484;-58
2022/04/04 09:51:44;;;;;;;0.43;0.10;;;20.80;38.00;;;;;;5070674;28;20067;-59
2022/04/04 09:54:14;;;;;;;0.10;0.10;;;20.80;37.90;;;;;;5074507;28;20036;-59
2022/04/04 09:56:41;;;;;;;0.20;0.00;;;20.80;38.40;;;;;;5074269;28;20032;-59
2022/04/04 09:59:12;;;;;;;0.55;0.00;;;20.80;37.80;;;;;;5081373;28;20036;-58
2022/04/04 10:01:40;;;;;;;0.52;0.20;;;20.80;37.70;;;;;;5067813;28;20055;-59
2022/04/04 10:04:09;;;;;;;0.10;0.00;;;20.80;37.60;;;;;;5076140;28;20127;-58
2022/04/04 10:06:39;;;;;;;0.10;0.10;;;20.80;37.50;;;;;;5078912;28;20513;-59
2022/04/04 10:09:06;;;;;;;0.37;0.03;;;20.80;37.50;;;;;;5070038;28;20037;-44
2022/04/04 10:11:34;;;;;;;0.10;0.00;;;20.80;37.40;;;;;;5071396;28;20068;-59
2022/04/04 10:14:02;;;;;;;0.90;0.10;;;20.80;37.30;;;;;;5070403;28;20127;-59
2022/04/04 10:16:31;;;;;;;0.40;0.30;;;20.90;37.30;;;;;;5069033;28;20075;-57
2022/04/04 10:18:58;;;;;;;1.15;0.10;;;20.90;37.30;;;;;;5074204;28;20041;-58
2022/04/04 10:21:27;;;;;;;0.50;0.10;;;20.90;37.20;;;;;;5075495;28;20523;-58
2022/04/04 10:23:58;;;;;;;1.52;0.63;;;20.90;37.10;;;;;;5069716;28;20465;-58
2022/04/04 10:26:28;;;;;;;0.00;0.00;;;20.90;37.00;;;;;;5070150;28;20090;-58
2022/04/04 10:29:12;;;;;;;0.00;0.00;;;20.90;37.60;;;;;;5080035;28;20033;-58
2022/04/04 10:31:44;;;;;;;0.63;0.10;;;21.00;36.90;;;;;;5071712;28;20132;-58
2022/04/04 10:34:13;;;;;;;1.17;0.10;;;21.00;36.90;;;;;;5071998;28;20639;-58
2022/04/04 10:36:58;;;;;;;1.48;0.08;;;20.90;36.70;;;;;;5072696;28;20051;-58
2022/04/04 10:39:44;;;;;;;1.45;0.00;;;21.00;36.70;;;;;;5074983;28;20148;-58
2022/04/04 10:42:30;;;;;;;0.30;0.10;;;21.00;36.60;;;;;;5076100;28;20037;-60
2022/04/04 10:45:00;;;;;;;0.57;0.57;;;21.00;36.50;;;;;;5076574;28;20496;-60
2022/04/04 10:47:29;;;;;;;0.90;0.00;;;21.00;36.50;;;;;;5070234;28;20036;-60
2022/04/04 10:49:57;;;;;;;0.03;0.00;;;21.00;36.40;;;;;;5071596;28;20484;-60
2022/04/04 10:52:41;;;;;;;0.25;0.00;;;21.10;36.40;;;;;;5070335;28;20505;-60
2022/04/04 10:55:41;;;;;;;0.10;0.00;;;21.10;36.30;;;;;;5074961;28;20093;-60
2022/04/04 10:58:13;;;;;;;0.45;0.00;;;21.10;36.20;;;;;;5080877;28;20040;-60
2022/04/04 11:00:59;;;;;;;0.43;0.00;;;21.20;36.30;;;;;;5073253;28;20487;-58
2022/04/04 11:03:35;;;;;;;0.20;0.20;;;21.20;36.20;;;;;;5074676;28;20040;-60
2022/04/04 11:09:18;;;;;;;0.13;0.00;;;21.30;36.10;;;;;;5071561;28;20178;-60
2022/04/04 11:11:50;;;;;;;0.10;0.10;;;21.30;36.00;;;;;;5072658;28;20075;-57
2022/04/04 11:14:19;;;;;;;0.38;0.00;;;21.20;36.00;;;;;;5070528;28;20052;-59
2022/04/04 11:17:23;;;;;;;0.10;0.10;;;21.30;35.90;;;;;;5066218;28;20047;-59
2022/04/04 11:19:53;;;;;;;0.28;0.08;;;21.30;35.70;;;;;;5064765;28;20052;-58
2022/04/04 11:22:22;;;;;;;0.03;0.03;;;21.40;35.80;;;;;;5082810;28;20060;-58
2022/04/04 11:24:55;;;;;;;0.20;0.15;;;21.40;35.70;;;;;;5074874;28;20040;-58
2022/04/04 11:27:28;;;;;;;0.10;0.00;;;21.40;35.50;;;;;;5080318;28;20395;-58
2022/04/04 11:29:55;;;;;;;0.20;0.20;;;21.40;35.40;;;;;;5083825;28;20072;-58
2022/04/04 11:32:28;;;;;;;0.00;0.00;;;21.40;35.40;;;;;;5074601;28;20040;-58
2022/04/04 11:34:57;;;;;;;0.25;0.00;;;21.40;35.30;;;;;;5069293;28;20044;-58
2022/04/04 11:37:27;;;;;;;0.00;0.00;;;21.50;35.30;;;;;;5079831;28;20042;-58
2022/04/04 11:40:03;;;;;;;0.00;0.00;;;21.50;35.20;;;;;;5080246;28;20094;-58
2022/04/04 11:42:32;;;;;;;0.10;0.00;;;21.50;35.10;;;;;;5073642;28;20055;-57
2022/04/04 11:45:03;;;;;;;0.50;0.10;;;21.50;35.00;;;;;;5073042;28;20438;-57
2022/04/04 11:47:30;;;;;;;0.57;0.35;;;21.50;35.00;;;;;;5073218;28;20101;-58
2022/04/04 11:50:01;;;;;;;0.82;0.17;;;21.60;34.90;;;;;;5069804;28;20041;-58
2022/04/04 11:52:29;;;;;;;0.10;0.10;;;21.60;34.80;;;;;;5072939;28;20045;-57
2022/04/04 11:54:56;;;;;;;0.10;0.10;;;21.60;34.80;;;;;;5084852;28;20497;-58
2022/04/04 11:57:24;;;;;;;0.15;0.03;;;21.60;34.70;;;;;;5076439;28;20097;-58
2022/04/04 11:59:53;;;;;;;0.10;0.10;;;21.60;34.60;;;;;;5083214;28;20106;-59
2022/04/04 12:02:23;;;;;;;0.10;0.00;;;21.60;34.50;;;;;;5070825;28;20110;-59
2022/04/04 12:04:52;;;;;;;0.10;0.00;;;21.70;34.50;;;;;;5067893;28;20055;-59
2022/04/04 12:07:19;;;;;;;0.82;0.30;;;21.70;34.40;;;;;;5084890;28;20036;-58
2022/04/04 12:09:51;;;;;;;0.82;0.10;;;21.70;34.40;;;;;;5075780;28;20036;-56
2022/04/04 12:12:18;;;;;;;0.20;0.20;;;21.70;34.30;;;;;;5078418;28;20037;-58
2022/04/04 12:14:48;;;;;;;0.93;0.00;;;21.70;34.20;;;;;;5071490;28;20049;-57
2022/04/04 12:17:23;;;;;;;0.20;0.20;;;21.70;34.10;;;;;;5071062;28;20117;-58
2022/04/04 12:19:52;;;;;;;0.10;0.10;;;21.70;34.10;;;;;;5071571;28;20060;-57
2022/04/04 12:25:13;;;;;;;0.35;0.10;;;21.70;34.60;;;;;;5021187;28;20489;-57
2022/04/04 12:27:55;;;;;;;0.05;0.05;;;21.70;34.00;;;;;;5010173;28;20045;-57
2022/04/04 12:30:30;;;;;;;0.10;0.10;;;21.80;33.90;;;;;;5008627;28;20054;-57
2022/04/04 12:33:09;;;;;;;1.75;0.10;;;21.70;33.80;;;;;;5009486;28;20513;-58
2022/04/04 12:35:43;;;;;;;0.77;0.10;;;21.80;33.80;;;;;;5017869;28;20127;-60
2022/04/04 12:38:11;;;;;;;0.35;0.05;;;21.70;33.80;;;;;;5008297;28;21482;-61
2022/04/04 12:40:39;;;;;;;0.17;0.10;;;21.70;33.70;;;;;;5006922;28;20081;-58
2022/04/04 12:43:08;;;;;;;0.38;0.15;;;21.70;33.70;;;;;;5010859;28;20049;-57
2022/04/04 12:45:45;;;;;;;0.80;0.10;;;21.70;33.60;;;;;;5009707;28;20077;-58
2022/04/04 12:48:14;;;;;;;0.03;0.00;;;21.70;33.60;;;;;;5010907;28;20050;-60
2022/04/04 12:50:44;;;;;;;0.10;0.10;;;21.80;33.70;;;;;;5016723;28;20137;-59
2022/04/04 12:53:13;;;;;;;0.28;0.10;;;21.70;33.60;;;;;;5006288;28;20511;-58
2022/04/04 12:55:43;;;;;;;0.52;0.10;;;21.80;33.60;;;;;;5004892;28;20156;-59
2022/04/04 12:58:18;;;;;;;1.77;0.10;;;21.70;33.60;;;;;;5015928;28;20053;-59
2022/04/04 13:00:47;;;;;;;0.30;0.17;;;21.80;33.60;;;;;;5032038;28;20520;-58
2022/04/04 13:03:23;;;;;;;0.10;0.10;;;21.70;33.60;;;;;;5076876;28;20079;-58
2022/04/04 13:05:52;;;;;;;0.10;0.10;;;21.70;33.50;;;;;;5075412;28;20053;-58
2022/04/04 13:08:22;;;;;;;0.10;0.10;;;21.70;33.50;;;;;;5079202;28;20114;-59
2022/04/04 13:11:03;;;;;;;0.73;0.10;;;21.70;33.50;;;;;;5071036;28;20048;-60